sensor_id;sensor_type;location;lat;lon;timestamp;P1;durP1;ratioP1;P2;durP2;ratioP2
72649;SDS011;61467;50.674;4.618;2022-10-17T00:02:16;8.98;;;4.28;;
72649;SDS011;61467;50.674;4.618;2022-10-17T00:04:43;8.82;;;4.57;;
72649;SDS011;61467;50.674;4.618;2022-10-17T00:07:10;11.55;;;5.22;;
72649;SDS011;61467;50.674;4.618;2022-10-17T00:09:37;9.23;;;4.37;;
72649;SDS011;61467;50.674;4.618;2022-10-17T00:12:03;10.25;;;4.60;;
72649;SDS011;61467;50.674;4.618;2022-10-17T00:14:30;8.30;;;4.45;;
72649;SDS011;61467;50.674;4.618;2022-10-17T00:16:57;10.65;;;4.40;;
72649;SDS011;61467;50.674;4.618;2022-10-17T00:19:25;10.95;;;4.40;;
72649;SDS011;61467;50.674;4.618;2022-10-17T00:21:52;8.80;;;4.10;;
72649;SDS011;61467;50.674;4.618;2022-10-17T00:24:18;9.70;;;4.97;;
72649;SDS011;61467;50.674;4.618;2022-10-17T00:26:45;10.20;;;4.72;;
72649;SDS011;61467;50.674;4.618;2022-10-17T00:29:12;9.10;;;4.93;;
72649;SDS011;61467;50.674;4.618;2022-10-17T00:31:38;10.70;;;4.82;;
72649;SDS011;61467;50.674;4.618;2022-10-17T00:34:05;9.37;;;4.33;;
72649;SDS011;61467;50.674;4.618;2022-10-17T00:36:33;8.88;;;4.13;;
72649;SDS011;61467;50.674;4.618;2022-10-17T00:39:00;9.85;;;4.97;;
72649;SDS011;61467;50.674;4.618;2022-10-17T00:41:27;9.95;;;4.90;;
72649;SDS011;61467;50.674;4.618;2022-10-17T00:43:56;9.40;;;4.97;;
72649;SDS011;61467;50.674;4.618;2022-10-17T00:46:25;10.87;;;4.97;;
72649;SDS011;61467;50.674;4.618;2022-10-17T00:48:54;10.88;;;5.07;;
72649;SDS011;61467;50.674;4.618;2022-10-17T00:51:24;13.85;;;5.60;;
72649;SDS011;61467;50.674;4.618;2022-10-17T00:53:55;9.70;;;5.10;;
72649;SDS011;61467;50.674;4.618;2022-10-17T00:56:22;9.15;;;4.20;;
72649;SDS011;61467;50.674;4.618;2022-10-17T00:58:49;10.27;;;4.47;;
72649;SDS011;61467;50.674;4.618;2022-10-17T01:01:15;9.68;;;5.20;;
72649;SDS011;61467;50.674;4.618;2022-10-17T01:03:42;10.75;;;4.63;;
72649;SDS011;61467;50.674;4.618;2022-10-17T01:06:09;9.15;;;5.00;;
72649;SDS011;61467;50.674;4.618;2022-10-17T01:08:35;11.80;;;4.80;;
72649;SDS011;61467;50.674;4.618;2022-10-17T01:11:06;13.53;;;4.67;;
72649;SDS011;61467;50.674;4.618;2022-10-17T01:13:45;11.80;;;4.82;;
72649;SDS011;61467;50.674;4.618;2022-10-17T01:16:17;10.80;;;5.40;;
72649;SDS011;61467;50.674;4.618;2022-10-17T01:18:54;9.43;;;4.53;;
72649;SDS011;61467;50.674;4.618;2022-10-17T01:21:39;8.93;;;4.47;;
72649;SDS011;61467;50.674;4.618;2022-10-17T01:27:28;7.95;;;4.40;;
72649;SDS011;61467;50.674;4.618;2022-10-17T01:33:21;9.90;;;4.70;;
72649;SDS011;61467;50.674;4.618;2022-10-17T01:35:57;9.73;;;4.80;;
72649;SDS011;61467;50.674;4.618;2022-10-17T01:38:28;8.80;;;4.23;;
72649;SDS011;61467;50.674;4.618;2022-10-17T01:40:59;13.05;;;4.85;;
72649;SDS011;61467;50.674;4.618;2022-10-17T01:43:32;9.40;;;4.32;;
72649;SDS011;61467;50.674;4.618;2022-10-17T01:46:06;10.77;;;4.30;;
72649;SDS011;61467;50.674;4.618;2022-10-17T01:48:38;9.60;;;4.35;;
72649;SDS011;61467;50.674;4.618;2022-10-17T01:51:10;8.93;;;4.07;;
72649;SDS011;61467;50.674;4.618;2022-10-17T01:53:44;10.05;;;4.82;;
72649;SDS011;61467;50.674;4.618;2022-10-17T01:56:15;8.80;;;4.10;;
72649;SDS011;61467;50.674;4.618;2022-10-17T01:58:44;14.00;;;4.95;;
72649;SDS011;61467;50.674;4.618;2022-10-17T02:01:15;8.77;;;3.95;;
72649;SDS011;61467;50.674;4.618;2022-10-17T02:03:44;7.40;;;3.87;;
72649;SDS011;61467;50.674;4.618;2022-10-17T02:06:13;8.48;;;3.97;;
72649;SDS011;61467;50.674;4.618;2022-10-17T02:08:41;9.27;;;4.13;;
72649;SDS011;61467;50.674;4.618;2022-10-17T02:11:10;8.18;;;3.90;;
72649;SDS011;61467;50.674;4.618;2022-10-17T02:13:42;9.25;;;4.53;;
72649;SDS011;61467;50.674;4.618;2022-10-17T02:16:26;10.60;;;4.20;;
72649;SDS011;61467;50.674;4.618;2022-10-17T02:22:09;7.00;;;3.85;;
72649;SDS011;61467;50.674;4.618;2022-10-17T02:24:44;11.82;;;4.28;;
72649;SDS011;61467;50.674;4.618;2022-10-17T02:27:14;9.73;;;4.53;;
72649;SDS011;61467;50.674;4.618;2022-10-17T02:29:47;8.53;;;4.63;;
72649;SDS011;61467;50.674;4.618;2022-10-17T02:32:20;10.45;;;4.38;;
72649;SDS011;61467;50.674;4.618;2022-10-17T02:34:51;8.73;;;4.40;;
72649;SDS011;61467;50.674;4.618;2022-10-17T02:37:21;8.18;;;4.07;;
72649;SDS011;61467;50.674;4.618;2022-10-17T02:39:52;9.40;;;4.00;;
72649;SDS011;61467;50.674;4.618;2022-10-17T02:42:20;9.47;;;4.47;;
72649;SDS011;61467;50.674;4.618;2022-10-17T02:44:48;8.82;;;4.10;;
72649;SDS011;61467;50.674;4.618;2022-10-17T02:47:17;9.48;;;4.72;;
72649;SDS011;61467;50.674;4.618;2022-10-17T02:49:49;10.52;;;4.18;;
72649;SDS011;61467;50.674;4.618;2022-10-17T02:52:20;8.70;;;4.13;;
72649;SDS011;61467;50.674;4.618;2022-10-17T02:54:53;9.57;;;4.00;;
72649;SDS011;61467;50.674;4.618;2022-10-17T02:57:24;13.55;;;4.68;;
72649;SDS011;61467;50.674;4.618;2022-10-17T02:59:54;9.73;;;4.15;;
72649;SDS011;61467;50.674;4.618;2022-10-17T03:02:24;11.25;;;4.43;;
72649;SDS011;61467;50.674;4.618;2022-10-17T03:04:51;9.48;;;4.15;;
72649;SDS011;61467;50.674;4.618;2022-10-17T03:07:18;12.20;;;5.23;;
72649;SDS011;61467;50.674;4.618;2022-10-17T03:09:45;9.88;;;4.43;;
72649;SDS011;61467;50.674;4.618;2022-10-17T03:12:11;10.65;;;4.18;;
72649;SDS011;61467;50.674;4.618;2022-10-17T03:14:38;8.07;;;3.80;;
72649;SDS011;61467;50.674;4.618;2022-10-17T03:17:04;7.97;;;3.95;;
72649;SDS011;61467;50.674;4.618;2022-10-17T03:19:32;8.83;;;4.50;;
72649;SDS011;61467;50.674;4.618;2022-10-17T03:21:59;7.30;;;3.50;;
72649;SDS011;61467;50.674;4.618;2022-10-17T03:24:26;9.25;;;3.78;;
72649;SDS011;61467;50.674;4.618;2022-10-17T03:26:52;9.50;;;4.03;;
72649;SDS011;61467;50.674;4.618;2022-10-17T03:29:19;9.77;;;3.97;;
72649;SDS011;61467;50.674;4.618;2022-10-17T03:31:45;7.80;;;4.00;;
72649;SDS011;61467;50.674;4.618;2022-10-17T03:34:12;10.52;;;4.05;;
72649;SDS011;61467;50.674;4.618;2022-10-17T03:36:42;10.70;;;4.45;;
72649;SDS011;61467;50.674;4.618;2022-10-17T03:39:08;8.75;;;3.67;;
72649;SDS011;61467;50.674;4.618;2022-10-17T03:41:35;9.73;;;4.50;;
72649;SDS011;61467;50.674;4.618;2022-10-17T03:44:03;9.27;;;4.23;;
72649;SDS011;61467;50.674;4.618;2022-10-17T03:46:30;8.27;;;3.95;;
72649;SDS011;61467;50.674;4.618;2022-10-17T03:48:56;13.52;;;5.10;;
72649;SDS011;61467;50.674;4.618;2022-10-17T03:51:23;9.85;;;4.07;;
72649;SDS011;61467;50.674;4.618;2022-10-17T03:53:51;9.45;;;4.47;;
72649;SDS011;61467;50.674;4.618;2022-10-17T03:56:18;10.27;;;4.60;;
72649;SDS011;61467;50.674;4.618;2022-10-17T03:58:46;9.85;;;4.25;;
72649;SDS011;61467;50.674;4.618;2022-10-17T04:01:14;9.25;;;3.90;;
72649;SDS011;61467;50.674;4.618;2022-10-17T04:03:41;7.78;;;3.45;;
72649;SDS011;61467;50.674;4.618;2022-10-17T04:06:09;9.80;;;4.10;;
72649;SDS011;61467;50.674;4.618;2022-10-17T04:08:37;7.50;;;3.63;;
72649;SDS011;61467;50.674;4.618;2022-10-17T04:11:06;9.50;;;3.78;;
72649;SDS011;61467;50.674;4.618;2022-10-17T04:13:33;8.90;;;3.55;;
72649;SDS011;61467;50.674;4.618;2022-10-17T04:16:02;8.18;;;4.03;;
72649;SDS011;61467;50.674;4.618;2022-10-17T04:18:30;11.18;;;3.95;;
72649;SDS011;61467;50.674;4.618;2022-10-17T04:21:00;9.13;;;3.93;;
72649;SDS011;61467;50.674;4.618;2022-10-17T04:23:27;8.25;;;4.15;;
72649;SDS011;61467;50.674;4.618;2022-10-17T04:25:54;8.60;;;3.53;;
72649;SDS011;61467;50.674;4.618;2022-10-17T04:28:23;9.85;;;3.42;;
72649;SDS011;61467;50.674;4.618;2022-10-17T04:30:54;11.02;;;4.25;;
72649;SDS011;61467;50.674;4.618;2022-10-17T04:33:21;9.47;;;4.10;;
72649;SDS011;61467;50.674;4.618;2022-10-17T04:35:53;8.05;;;3.40;;
72649;SDS011;61467;50.674;4.618;2022-10-17T04:38:21;10.63;;;4.13;;
72649;SDS011;61467;50.674;4.618;2022-10-17T04:40:47;13.32;;;4.05;;
72649;SDS011;61467;50.674;4.618;2022-10-17T04:43:14;12.18;;;4.35;;
72649;SDS011;61467;50.674;4.618;2022-10-17T04:45:42;8.03;;;4.33;;
72649;SDS011;61467;50.674;4.618;2022-10-17T04:48:09;10.30;;;4.70;;
72649;SDS011;61467;50.674;4.618;2022-10-17T04:50:36;9.20;;;3.83;;
72649;SDS011;61467;50.674;4.618;2022-10-17T04:53:02;9.07;;;4.00;;
72649;SDS011;61467;50.674;4.618;2022-10-17T04:55:29;8.32;;;3.90;;
72649;SDS011;61467;50.674;4.618;2022-10-17T04:57:56;9.53;;;4.10;;
72649;SDS011;61467;50.674;4.618;2022-10-17T05:00:22;8.13;;;3.83;;
72649;SDS011;61467;50.674;4.618;2022-10-17T05:02:50;7.85;;;3.83;;
72649;SDS011;61467;50.674;4.618;2022-10-17T05:05:19;7.80;;;3.92;;
72649;SDS011;61467;50.674;4.618;2022-10-17T05:07:45;9.55;;;3.80;;
72649;SDS011;61467;50.674;4.618;2022-10-17T05:10:12;8.83;;;3.50;;
72649;SDS011;61467;50.674;4.618;2022-10-17T05:12:39;10.07;;;3.85;;
72649;SDS011;61467;50.674;4.618;2022-10-17T05:15:06;7.45;;;3.50;;
72649;SDS011;61467;50.674;4.618;2022-10-17T05:17:33;12.30;;;3.90;;
72649;SDS011;61467;50.674;4.618;2022-10-17T05:20:01;9.30;;;3.83;;
72649;SDS011;61467;50.674;4.618;2022-10-17T05:22:28;11.67;;;4.13;;
72649;SDS011;61467;50.674;4.618;2022-10-17T05:24:55;8.90;;;3.78;;
72649;SDS011;61467;50.674;4.618;2022-10-17T05:27:21;9.90;;;3.47;;
72649;SDS011;61467;50.674;4.618;2022-10-17T05:29:48;9.77;;;3.70;;
72649;SDS011;61467;50.674;4.618;2022-10-17T05:32:15;7.00;;;3.22;;
72649;SDS011;61467;50.674;4.618;2022-10-17T05:34:42;8.00;;;3.50;;
72649;SDS011;61467;50.674;4.618;2022-10-17T05:37:10;9.82;;;3.60;;
72649;SDS011;61467;50.674;4.618;2022-10-17T05:39:36;9.20;;;3.35;;
72649;SDS011;61467;50.674;4.618;2022-10-17T05:42:03;8.15;;;3.40;;
72649;SDS011;61467;50.674;4.618;2022-10-17T05:44:30;7.57;;;3.45;;
72649;SDS011;61467;50.674;4.618;2022-10-17T05:46:56;9.60;;;3.67;;
72649;SDS011;61467;50.674;4.618;2022-10-17T05:49:23;7.82;;;3.45;;
72649;SDS011;61467;50.674;4.618;2022-10-17T05:51:49;8.82;;;3.80;;
72649;SDS011;61467;50.674;4.618;2022-10-17T05:54:17;8.93;;;4.45;;
72649;SDS011;61467;50.674;4.618;2022-10-17T05:56:44;7.43;;;3.63;;
72649;SDS011;61467;50.674;4.618;2022-10-17T05:59:11;8.07;;;3.20;;
72649;SDS011;61467;50.674;4.618;2022-10-17T06:01:37;10.57;;;3.78;;
72649;SDS011;61467;50.674;4.618;2022-10-17T06:04:04;8.75;;;2.92;;
72649;SDS011;61467;50.674;4.618;2022-10-17T06:06:31;6.25;;;2.83;;
72649;SDS011;61467;50.674;4.618;2022-10-17T06:08:57;8.15;;;3.30;;
72649;SDS011;61467;50.674;4.618;2022-10-17T06:11:25;8.47;;;3.60;;
72649;SDS011;61467;50.674;4.618;2022-10-17T06:13:52;8.55;;;3.33;;
72649;SDS011;61467;50.674;4.618;2022-10-17T06:16:20;6.47;;;2.78;;
72649;SDS011;61467;50.674;4.618;2022-10-17T06:18:47;10.73;;;3.40;;
72649;SDS011;61467;50.674;4.618;2022-10-17T06:21:16;8.93;;;2.92;;
72649;SDS011;61467;50.674;4.618;2022-10-17T06:23:44;10.67;;;3.37;;
72649;SDS011;61467;50.674;4.618;2022-10-17T06:26:11;10.43;;;3.10;;
72649;SDS011;61467;50.674;4.618;2022-10-17T06:28:39;8.35;;;3.10;;
72649;SDS011;61467;50.674;4.618;2022-10-17T06:31:06;8.05;;;3.20;;
72649;SDS011;61467;50.674;4.618;2022-10-17T06:33:34;8.13;;;3.17;;
72649;SDS011;61467;50.674;4.618;2022-10-17T06:36:02;8.07;;;3.30;;
72649;SDS011;61467;50.674;4.618;2022-10-17T06:38:29;7.78;;;3.20;;
72649;SDS011;61467;50.674;4.618;2022-10-17T06:41:01;9.63;;;3.15;;
72649;SDS011;61467;50.674;4.618;2022-10-17T06:43:29;6.75;;;3.00;;
72649;SDS011;61467;50.674;4.618;2022-10-17T06:45:57;9.20;;;3.15;;
72649;SDS011;61467;50.674;4.618;2022-10-17T06:48:23;11.90;;;3.47;;
72649;SDS011;61467;50.674;4.618;2022-10-17T06:50:50;9.32;;;3.13;;
72649;SDS011;61467;50.674;4.618;2022-10-17T06:53:17;9.50;;;3.00;;
72649;SDS011;61467;50.674;4.618;2022-10-17T06:55:43;11.77;;;3.53;;
72649;SDS011;61467;50.674;4.618;2022-10-17T06:58:10;10.40;;;3.80;;
72649;SDS011;61467;50.674;4.618;2022-10-17T07:00:36;9.40;;;3.30;;
72649;SDS011;61467;50.674;4.618;2022-10-17T07:03:04;7.72;;;3.20;;
72649;SDS011;61467;50.674;4.618;2022-10-17T07:05:31;10.45;;;3.22;;
72649;SDS011;61467;50.674;4.618;2022-10-17T07:07:58;6.78;;;3.00;;
72649;SDS011;61467;50.674;4.618;2022-10-17T07:10:25;6.85;;;3.13;;
72649;SDS011;61467;50.674;4.618;2022-10-17T07:12:52;8.43;;;3.20;;
72649;SDS011;61467;50.674;4.618;2022-10-17T07:15:18;8.50;;;3.28;;
72649;SDS011;61467;50.674;4.618;2022-10-17T07:17:47;9.60;;;3.05;;
72649;SDS011;61467;50.674;4.618;2022-10-17T07:20:15;6.57;;;2.90;;
72649;SDS011;61467;50.674;4.618;2022-10-17T07:22:42;10.95;;;3.63;;
72649;SDS011;61467;50.674;4.618;2022-10-17T07:25:09;7.87;;;3.07;;
72649;SDS011;61467;50.674;4.618;2022-10-17T07:27:35;9.38;;;3.10;;
72649;SDS011;61467;50.674;4.618;2022-10-17T07:30:02;9.30;;;3.90;;
72649;SDS011;61467;50.674;4.618;2022-10-17T07:32:29;8.60;;;3.10;;
72649;SDS011;61467;50.674;4.618;2022-10-17T07:34:56;9.57;;;3.30;;
72649;SDS011;61467;50.674;4.618;2022-10-17T07:37:24;10.73;;;3.57;;
72649;SDS011;61467;50.674;4.618;2022-10-17T07:39:51;9.65;;;3.22;;
72649;SDS011;61467;50.674;4.618;2022-10-17T07:42:17;11.52;;;3.58;;
72649;SDS011;61467;50.674;4.618;2022-10-17T07:44:44;7.82;;;3.40;;
72649;SDS011;61467;50.674;4.618;2022-10-17T07:47:11;8.93;;;3.13;;
72649;SDS011;61467;50.674;4.618;2022-10-17T07:49:38;9.83;;;3.60;;
72649;SDS011;61467;50.674;4.618;2022-10-17T07:52:08;9.20;;;3.58;;
72649;SDS011;61467;50.674;4.618;2022-10-17T07:54:36;7.75;;;3.35;;
72649;SDS011;61467;50.674;4.618;2022-10-17T07:57:03;11.30;;;4.25;;
72649;SDS011;61467;50.674;4.618;2022-10-17T07:59:31;8.23;;;3.40;;
72649;SDS011;61467;50.674;4.618;2022-10-17T08:01:58;7.47;;;3.30;;
72649;SDS011;61467;50.674;4.618;2022-10-17T08:04:25;11.98;;;3.80;;
72649;SDS011;61467;50.674;4.618;2022-10-17T08:06:52;12.30;;;4.15;;
72649;SDS011;61467;50.674;4.618;2022-10-17T08:09:19;7.85;;;3.50;;
72649;SDS011;61467;50.674;4.618;2022-10-17T08:11:47;7.97;;;3.50;;
72649;SDS011;61467;50.674;4.618;2022-10-17T08:14:14;9.47;;;3.73;;
72649;SDS011;61467;50.674;4.618;2022-10-17T08:16:41;7.43;;;3.60;;
72649;SDS011;61467;50.674;4.618;2022-10-17T08:19:07;9.10;;;3.83;;
72649;SDS011;61467;50.674;4.618;2022-10-17T08:21:35;8.80;;;3.72;;
72649;SDS011;61467;50.674;4.618;2022-10-17T08:24:02;9.35;;;4.30;;
72649;SDS011;61467;50.674;4.618;2022-10-17T08:26:29;10.47;;;4.40;;
72649;SDS011;61467;50.674;4.618;2022-10-17T08:28:58;8.02;;;3.78;;
72649;SDS011;61467;50.674;4.618;2022-10-17T08:31:24;11.05;;;4.07;;
72649;SDS011;61467;50.674;4.618;2022-10-17T08:33:51;9.52;;;4.10;;
72649;SDS011;61467;50.674;4.618;2022-10-17T08:36:18;9.60;;;3.95;;
72649;SDS011;61467;50.674;4.618;2022-10-17T08:38:45;8.87;;;3.90;;
72649;SDS011;61467;50.674;4.618;2022-10-17T08:41:13;10.20;;;4.22;;
72649;SDS011;61467;50.674;4.618;2022-10-17T08:43:50;10.07;;;4.68;;
72649;SDS011;61467;50.674;4.618;2022-10-17T08:46:38;12.15;;;4.55;;
72649;SDS011;61467;50.674;4.618;2022-10-17T08:49:09;9.63;;;4.32;;
72649;SDS011;61467;50.674;4.618;2022-10-17T08:51:42;10.67;;;4.40;;
72649;SDS011;61467;50.674;4.618;2022-10-17T08:54:27;10.73;;;5.35;;
72649;SDS011;61467;50.674;4.618;2022-10-17T08:57:01;10.95;;;5.63;;
72649;SDS011;61467;50.674;4.618;2022-10-17T08:59:29;13.32;;;4.60;;
72649;SDS011;61467;50.674;4.618;2022-10-17T09:01:59;9.70;;;4.60;;
72649;SDS011;61467;50.674;4.618;2022-10-17T09:04:47;10.13;;;4.40;;
72649;SDS011;61467;50.674;4.618;2022-10-17T09:07:26;9.32;;;4.05;;
72649;SDS011;61467;50.674;4.618;2022-10-17T09:09:58;10.55;;;4.25;;
72649;SDS011;61467;50.674;4.618;2022-10-17T09:12:30;8.13;;;4.07;;
72649;SDS011;61467;50.674;4.618;2022-10-17T09:15:15;9.32;;;4.03;;
72649;SDS011;61467;50.674;4.618;2022-10-17T09:17:59;10.07;;;3.77;;
72649;SDS011;61467;50.674;4.618;2022-10-17T09:20:31;9.60;;;4.20;;
72649;SDS011;61467;50.674;4.618;2022-10-17T09:23:03;9.68;;;4.40;;
72649;SDS011;61467;50.674;4.618;2022-10-17T09:25:39;10.57;;;4.28;;
72649;SDS011;61467;50.674;4.618;2022-10-17T09:28:11;8.23;;;4.10;;
72649;SDS011;61467;50.674;4.618;2022-10-17T09:30:43;11.77;;;4.30;;
72649;SDS011;61467;50.674;4.618;2022-10-17T09:33:11;19.40;;;4.93;;
72649;SDS011;61467;50.674;4.618;2022-10-17T09:35:41;10.27;;;4.05;;
72649;SDS011;61467;50.674;4.618;2022-10-17T09:38:16;7.47;;;3.85;;
72649;SDS011;61467;50.674;4.618;2022-10-17T09:40:47;9.02;;;3.88;;
72649;SDS011;61467;50.674;4.618;2022-10-17T09:43:16;7.77;;;3.53;;
72649;SDS011;61467;50.674;4.618;2022-10-17T09:45:48;7.75;;;3.40;;
72649;SDS011;61467;50.674;4.618;2022-10-17T09:48:25;9.02;;;3.55;;
72649;SDS011;61467;50.674;4.618;2022-10-17T09:50:56;8.57;;;3.67;;
72649;SDS011;61467;50.674;4.618;2022-10-17T09:53:25;8.20;;;3.25;;
72649;SDS011;61467;50.674;4.618;2022-10-17T09:56:00;8.33;;;3.83;;
72649;SDS011;61467;50.674;4.618;2022-10-17T09:58:38;9.20;;;3.90;;
72649;SDS011;61467;50.674;4.618;2022-10-17T10:01:18;8.40;;;3.47;;
72649;SDS011;61467;50.674;4.618;2022-10-17T10:03:46;7.82;;;3.55;;
72649;SDS011;61467;50.674;4.618;2022-10-17T10:06:14;9.18;;;3.72;;
72649;SDS011;61467;50.674;4.618;2022-10-17T10:08:48;8.73;;;4.27;;
72649;SDS011;61467;50.674;4.618;2022-10-17T10:11:17;10.57;;;4.07;;
72649;SDS011;61467;50.674;4.618;2022-10-17T10:13:45;8.93;;;4.10;;
72649;SDS011;61467;50.674;4.618;2022-10-17T10:16:15;10.27;;;3.60;;
72649;SDS011;61467;50.674;4.618;2022-10-17T10:18:46;9.35;;;3.53;;
72649;SDS011;61467;50.674;4.618;2022-10-17T10:21:15;9.90;;;3.50;;
72649;SDS011;61467;50.674;4.618;2022-10-17T10:23:44;9.73;;;3.75;;
72649;SDS011;61467;50.674;4.618;2022-10-17T10:26:28;8.65;;;3.42;;
72649;SDS011;61467;50.674;4.618;2022-10-17T10:29:00;8.82;;;3.65;;
72649;SDS011;61467;50.674;4.618;2022-10-17T10:31:32;8.05;;;3.33;;
72649;SDS011;61467;50.674;4.618;2022-10-17T10:34:02;9.50;;;3.13;;
72649;SDS011;61467;50.674;4.618;2022-10-17T10:36:48;8.57;;;3.53;;
72649;SDS011;61467;50.674;4.618;2022-10-17T10:39:28;10.15;;;3.13;;
72649;SDS011;61467;50.674;4.618;2022-10-17T10:41:58;10.48;;;3.30;;
72649;SDS011;61467;50.674;4.618;2022-10-17T10:44:27;8.05;;;3.17;;
72649;SDS011;61467;50.674;4.618;2022-10-17T10:47:06;7.27;;;3.17;;
72649;SDS011;61467;50.674;4.618;2022-10-17T10:49:34;8.02;;;2.60;;
72649;SDS011;61467;50.674;4.618;2022-10-17T10:52:03;6.93;;;2.78;;
72649;SDS011;61467;50.674;4.618;2022-10-17T10:54:33;7.68;;;2.97;;
72649;SDS011;61467;50.674;4.618;2022-10-17T10:57:05;9.27;;;3.10;;
72649;SDS011;61467;50.674;4.618;2022-10-17T10:59:39;9.40;;;3.37;;
72649;SDS011;61467;50.674;4.618;2022-10-17T11:02:16;7.35;;;3.20;;
72649;SDS011;61467;50.674;4.618;2022-10-17T11:04:49;9.73;;;3.30;;
72649;SDS011;61467;50.674;4.618;2022-10-17T11:07:21;9.43;;;3.10;;
72649;SDS011;61467;50.674;4.618;2022-10-17T11:09:56;8.43;;;3.92;;
72649;SDS011;61467;50.674;4.618;2022-10-17T11:12:26;9.00;;;3.80;;
72649;SDS011;61467;50.674;4.618;2022-10-17T11:14:58;9.38;;;4.00;;
72649;SDS011;61467;50.674;4.618;2022-10-17T11:17:35;9.02;;;3.60;;
72649;SDS011;61467;50.674;4.618;2022-10-17T11:20:10;10.25;;;3.20;;
72649;SDS011;61467;50.674;4.618;2022-10-17T11:22:41;9.05;;;3.60;;
72649;SDS011;61467;50.674;4.618;2022-10-17T11:25:18;9.93;;;3.40;;
72649;SDS011;61467;50.674;4.618;2022-10-17T11:27:50;7.85;;;3.58;;
72649;SDS011;61467;50.674;4.618;2022-10-17T11:30:17;10.00;;;4.10;;
72649;SDS011;61467;50.674;4.618;2022-10-17T11:32:47;7.68;;;3.50;;
72649;SDS011;61467;50.674;4.618;2022-10-17T11:35:18;11.55;;;3.85;;
72649;SDS011;61467;50.674;4.618;2022-10-17T11:37:49;10.53;;;3.53;;
72649;SDS011;61467;50.674;4.618;2022-10-17T11:40:23;9.68;;;3.85;;
72649;SDS011;61467;50.674;4.618;2022-10-17T11:42:56;9.80;;;3.85;;
72649;SDS011;61467;50.674;4.618;2022-10-17T11:45:26;8.40;;;4.25;;
72649;SDS011;61467;50.674;4.618;2022-10-17T11:47:59;9.55;;;4.13;;
72649;SDS011;61467;50.674;4.618;2022-10-17T11:50:29;10.07;;;3.80;;
72649;SDS011;61467;50.674;4.618;2022-10-17T11:52:57;8.93;;;3.90;;
72649;SDS011;61467;50.674;4.618;2022-10-17T11:55:29;12.20;;;3.70;;
72649;SDS011;61467;50.674;4.618;2022-10-17T11:58:03;10.50;;;4.18;;
72649;SDS011;61467;50.674;4.618;2022-10-17T12:00:42;9.70;;;3.75;;
72649;SDS011;61467;50.674;4.618;2022-10-17T12:03:21;10.80;;;3.87;;
72649;SDS011;61467;50.674;4.618;2022-10-17T12:05:54;9.60;;;3.70;;
72649;SDS011;61467;50.674;4.618;2022-10-17T12:08:30;9.15;;;3.78;;
72649;SDS011;61467;50.674;4.618;2022-10-17T12:11:04;10.32;;;4.20;;
72649;SDS011;61467;50.674;4.618;2022-10-17T12:13:46;10.68;;;4.18;;
72649;SDS011;61467;50.674;4.618;2022-10-17T12:19:22;9.45;;;4.13;;
72649;SDS011;61467;50.674;4.618;2022-10-17T12:21:53;10.82;;;4.30;;
72649;SDS011;61467;50.674;4.618;2022-10-17T12:24:33;10.52;;;4.05;;
72649;SDS011;61467;50.674;4.618;2022-10-17T12:30:03;10.13;;;4.50;;
72649;SDS011;61467;50.674;4.618;2022-10-17T12:32:51;10.25;;;4.70;;
72649;SDS011;61467;50.674;4.618;2022-10-17T12:35:25;10.70;;;4.10;;
72649;SDS011;61467;50.674;4.618;2022-10-17T12:40:56;12.25;;;4.63;;
72649;SDS011;61467;50.674;4.618;2022-10-17T12:43:43;10.80;;;4.50;;
72649;SDS011;61467;50.674;4.618;2022-10-17T12:49:24;14.50;;;5.40;;
72649;SDS011;61467;50.674;4.618;2022-10-17T12:52:15;12.60;;;5.07;;
72649;SDS011;61467;50.674;4.618;2022-10-17T12:54:44;10.55;;;5.10;;
72649;SDS011;61467;50.674;4.618;2022-10-17T12:57:14;13.33;;;5.30;;
72649;SDS011;61467;50.674;4.618;2022-10-17T12:59:45;12.15;;;5.15;;
72649;SDS011;61467;50.674;4.618;2022-10-17T13:02:15;9.95;;;4.85;;
72649;SDS011;61467;50.674;4.618;2022-10-17T13:04:45;13.65;;;5.20;;
72649;SDS011;61467;50.674;4.618;2022-10-17T13:07:15;12.85;;;5.40;;
72649;SDS011;61467;50.674;4.618;2022-10-17T13:09:45;10.70;;;5.30;;
72649;SDS011;61467;50.674;4.618;2022-10-17T13:12:14;10.48;;;5.30;;
72649;SDS011;61467;50.674;4.618;2022-10-17T13:14:46;12.90;;;4.93;;
72649;SDS011;61467;50.674;4.618;2022-10-17T13:17:21;12.02;;;5.53;;
72649;SDS011;61467;50.674;4.618;2022-10-17T13:19:49;12.90;;;5.88;;
72649;SDS011;61467;50.674;4.618;2022-10-17T13:22:18;12.97;;;5.93;;
72649;SDS011;61467;50.674;4.618;2022-10-17T13:24:46;16.70;;;6.95;;
72649;SDS011;61467;50.674;4.618;2022-10-17T13:27:21;13.25;;;6.05;;
72649;SDS011;61467;50.674;4.618;2022-10-17T13:29:49;15.38;;;6.10;;
72649;SDS011;61467;50.674;4.618;2022-10-17T13:32:16;13.38;;;6.63;;
72649;SDS011;61467;50.674;4.618;2022-10-17T13:34:43;12.10;;;6.43;;
72649;SDS011;61467;50.674;4.618;2022-10-17T13:37:10;16.63;;;6.60;;
72649;SDS011;61467;50.674;4.618;2022-10-17T13:39:41;14.38;;;6.55;;
72649;SDS011;61467;50.674;4.618;2022-10-17T13:42:15;11.13;;;5.68;;
72649;SDS011;61467;50.674;4.618;2022-10-17T13:44:47;12.77;;;6.25;;
72649;SDS011;61467;50.674;4.618;2022-10-17T13:47:21;14.00;;;6.33;;
72649;SDS011;61467;50.674;4.618;2022-10-17T13:49:49;14.48;;;6.88;;
72649;SDS011;61467;50.674;4.618;2022-10-17T13:52:17;10.80;;;6.05;;
72649;SDS011;61467;50.674;4.618;2022-10-17T13:54:47;13.10;;;6.35;;
72649;SDS011;61467;50.674;4.618;2022-10-17T13:57:17;12.70;;;6.32;;
72649;SDS011;61467;50.674;4.618;2022-10-17T13:59:45;14.50;;;6.50;;
72649;SDS011;61467;50.674;4.618;2022-10-17T14:02:15;12.70;;;5.85;;
72649;SDS011;61467;50.674;4.618;2022-10-17T14:04:44;11.50;;;4.80;;
72649;SDS011;61467;50.674;4.618;2022-10-17T14:07:22;12.25;;;5.95;;
72649;SDS011;61467;50.674;4.618;2022-10-17T14:09:52;13.10;;;5.70;;
72649;SDS011;61467;50.674;4.618;2022-10-17T14:12:19;9.90;;;5.67;;
72649;SDS011;61467;50.674;4.618;2022-10-17T14:14:47;13.15;;;5.43;;
72649;SDS011;61467;50.674;4.618;2022-10-17T14:17:19;11.63;;;5.28;;
72649;SDS011;61467;50.674;4.618;2022-10-17T14:19:50;13.25;;;5.35;;
72649;SDS011;61467;50.674;4.618;2022-10-17T14:22:25;13.68;;;6.65;;
72649;SDS011;61467;50.674;4.618;2022-10-17T14:24:55;11.50;;;6.00;;
72649;SDS011;61467;50.674;4.618;2022-10-17T14:27:23;10.73;;;5.32;;
72649;SDS011;61467;50.674;4.618;2022-10-17T14:29:52;14.02;;;5.82;;
72649;SDS011;61467;50.674;4.618;2022-10-17T14:32:20;12.55;;;5.82;;
72649;SDS011;61467;50.674;4.618;2022-10-17T14:34:51;10.70;;;5.40;;
72649;SDS011;61467;50.674;4.618;2022-10-17T14:37:23;9.70;;;5.10;;
72649;SDS011;61467;50.674;4.618;2022-10-17T14:39:59;11.80;;;5.10;;
72649;SDS011;61467;50.674;4.618;2022-10-17T14:42:37;10.82;;;5.00;;
72649;SDS011;61467;50.674;4.618;2022-10-17T14:45:06;11.45;;;4.85;;
72649;SDS011;61467;50.674;4.618;2022-10-17T14:47:34;11.07;;;4.90;;
72649;SDS011;61467;50.674;4.618;2022-10-17T14:50:02;11.17;;;4.90;;
72649;SDS011;61467;50.674;4.618;2022-10-17T14:52:32;14.13;;;5.10;;
72649;SDS011;61467;50.674;4.618;2022-10-17T14:55:15;12.18;;;5.20;;
72649;SDS011;61467;50.674;4.618;2022-10-17T14:57:48;9.13;;;4.25;;
72649;SDS011;61467;50.674;4.618;2022-10-17T15:00:15;9.55;;;4.40;;
72649;SDS011;61467;50.674;4.618;2022-10-17T15:02:44;10.73;;;4.67;;
72649;SDS011;61467;50.674;4.618;2022-10-17T15:05:12;10.00;;;4.88;;
72649;SDS011;61467;50.674;4.618;2022-10-17T15:07:39;11.18;;;5.40;;
72649;SDS011;61467;50.674;4.618;2022-10-17T15:10:08;9.13;;;4.78;;
72649;SDS011;61467;50.674;4.618;2022-10-17T15:12:49;12.77;;;4.85;;
72649;SDS011;61467;50.674;4.618;2022-10-17T15:15:16;10.10;;;4.60;;
72649;SDS011;61467;50.674;4.618;2022-10-17T15:17:43;10.77;;;4.47;;
72649;SDS011;61467;50.674;4.618;2022-10-17T15:20:10;10.35;;;5.15;;
72649;SDS011;61467;50.674;4.618;2022-10-17T15:22:39;11.32;;;5.40;;